createdAt,value
2023-12-24T00:02:23.402Z,1.80
2023-12-24T00:04:53.324Z,1.70
2023-12-24T00:07:20.433Z,1.70
2023-12-24T00:09:47.656Z,1.70
2023-12-24T00:12:14.400Z,1.60
2023-12-24T00:14:41.202Z,1.60
2023-12-24T00:17:08.270Z,1.60
2023-12-24T00:19:35.669Z,1.50
2023-12-24T00:22:02.713Z,1.40
2023-12-24T00:24:29.619Z,1.50
2023-12-24T00:26:56.343Z,1.40
2023-12-24T00:29:23.326Z,1.40
2023-12-24T00:31:51.158Z,1.40
2023-12-24T00:34:17.992Z,1.30
2023-12-24T00:36:44.932Z,1.30
2023-12-24T00:39:11.816Z,1.30
2023-12-24T00:41:41.990Z,1.20
2023-12-24T00:44:08.848Z,1.20
2023-12-24T00:46:35.765Z,1.10
2023-12-24T00:49:03.065Z,1.70
2023-12-24T00:51:30.125Z,1.10
2023-12-24T00:53:57.289Z,1.10
2023-12-24T00:56:24.110Z,1.00
2023-12-24T00:58:50.903Z,1.00
2023-12-24T01:01:18.045Z,1.00
2023-12-24T01:03:45.711Z,0.90
2023-12-24T01:06:12.900Z,0.90
2023-12-24T01:08:39.787Z,0.90
2023-12-24T01:11:07.338Z,0.90
2023-12-24T01:13:34.204Z,0.80
2023-12-24T01:16:02.592Z,0.80
2023-12-24T01:18:29.441Z,0.80
2023-12-24T01:20:57.720Z,0.80
2023-12-24T01:23:24.746Z,0.80
2023-12-24T01:25:52.616Z,0.80
2023-12-24T01:28:19.504Z,0.80
2023-12-24T01:30:46.578Z,0.80
2023-12-24T01:33:13.736Z,0.70
2023-12-24T01:35:44.828Z,0.80
2023-12-24T01:38:11.993Z,0.80
2023-12-24T01:40:44.748Z,0.70
2023-12-24T01:43:12.038Z,0.70
2023-12-24T01:45:38.906Z,0.70
2023-12-24T01:48:06.096Z,0.70
2023-12-24T01:50:33.660Z,0.70
2023-12-24T01:53:00.747Z,0.70
2023-12-24T01:55:27.846Z,0.70
2023-12-24T01:57:54.776Z,0.70
2023-12-24T02:00:21.895Z,0.70
2023-12-24T02:02:50.777Z,0.70
2023-12-24T02:05:18.427Z,0.70
2023-12-24T02:07:48.220Z,0.70
2023-12-24T02:10:15.245Z,0.70
2023-12-24T02:12:42.336Z,0.60
2023-12-24T02:15:09.446Z,0.60
2023-12-24T02:17:37.105Z,0.60
2023-12-24T02:20:04.510Z,0.60
2023-12-24T02:22:31.567Z,0.50
2023-12-24T02:24:58.885Z,0.50
2023-12-24T02:28:24.508Z,0.50
2023-12-24T02:30:58.903Z,0.50
2023-12-24T02:33:31.633Z,0.50
2023-12-24T02:36:00.565Z,0.40
2023-12-24T02:38:27.343Z,0.40
2023-12-24T02:40:54.202Z,0.40
2023-12-24T02:43:21.174Z,0.40
2023-12-24T02:45:47.941Z,0.40
2023-12-24T02:48:15.112Z,0.40
2023-12-24T02:50:41.994Z,0.30
2023-12-24T02:53:09.007Z,0.30
2023-12-24T02:55:35.835Z,0.30
2023-12-24T02:58:02.812Z,0.30
2023-12-24T03:00:29.941Z,0.30
2023-12-24T03:02:57.371Z,0.50
2023-12-24T03:05:24.488Z,0.30
2023-12-24T03:07:51.655Z,0.30
2023-12-24T03:10:18.460Z,0.30
2023-12-24T03:12:45.268Z,0.30
2023-12-24T03:15:12.872Z,0.30
2023-12-24T03:17:39.708Z,0.30
2023-12-24T03:20:08.690Z,0.30
2023-12-24T03:22:35.679Z,0.30
2023-12-24T03:25:02.675Z,0.30
2023-12-24T03:27:29.450Z,0.30
2023-12-24T03:29:56.181Z,0.20
2023-12-24T03:32:23.363Z,0.30
2023-12-24T03:34:50.372Z,0.20
2023-12-24T03:37:17.172Z,0.30
2023-12-24T03:39:43.919Z,0.20
2023-12-24T03:42:10.998Z,0.30
2023-12-24T03:44:38.082Z,0.30
2023-12-24T03:47:05.376Z,0.30
2023-12-24T03:49:32.310Z,0.30
2023-12-24T03:51:59.177Z,0.30
2023-12-24T03:54:25.924Z,0.30
2023-12-24T03:56:53.038Z,0.30
2023-12-24T03:59:20.132Z,0.30
2023-12-24T04:01:47.571Z,0.30
2023-12-24T04:04:14.622Z,0.30
2023-12-24T04:06:41.397Z,0.30
2023-12-24T04:09:10.487Z,0.20
2023-12-24T04:11:37.331Z,0.30
2023-12-24T04:14:04.519Z,0.30
2023-12-24T04:16:31.580Z,0.30
2023-12-24T04:18:58.409Z,0.20
2023-12-24T04:21:25.274Z,0.20
2023-12-24T04:23:52.220Z,0.30
2023-12-24T04:26:19.305Z,0.30
2023-12-24T04:28:46.112Z,0.30
2023-12-24T04:31:13.072Z,0.20
2023-12-24T04:33:40.240Z,0.30
2023-12-24T04:36:07.921Z,0.30
2023-12-24T04:38:34.938Z,0.30
2023-12-24T04:41:02.054Z,0.30
2023-12-24T04:43:29.212Z,0.30
2023-12-24T04:45:55.962Z,0.30
2023-12-24T04:48:22.789Z,0.30
2023-12-24T04:50:49.744Z,0.30
2023-12-24T04:53:16.795Z,0.30
2023-12-24T04:55:43.681Z,0.30
2023-12-24T04:58:10.515Z,0.40
2023-12-24T05:00:37.402Z,0.30
2023-12-24T05:03:04.287Z,0.40
2023-12-24T05:05:31.438Z,0.40
2023-12-24T05:07:58.513Z,0.40
2023-12-24T05:10:25.265Z,0.40
2023-12-24T05:12:52.541Z,0.40
2023-12-24T05:15:19.752Z,0.40
2023-12-24T05:17:46.900Z,0.40
2023-12-24T05:20:13.972Z,0.40
2023-12-24T05:22:40.851Z,0.50
2023-12-24T05:25:07.939Z,0.50
2023-12-24T05:27:36.109Z,0.50
2023-12-24T05:30:05.678Z,0.50
2023-12-24T05:32:32.923Z,0.50
2023-12-24T05:34:59.996Z,0.60
2023-12-24T05:37:27.144Z,0.60
2023-12-24T05:39:53.921Z,0.50
2023-12-24T05:42:20.658Z,0.60
2023-12-24T05:44:47.612Z,0.60
2023-12-24T05:47:14.488Z,0.60
2023-12-24T05:49:41.293Z,0.60
2023-12-24T05:52:08.136Z,0.60
2023-12-24T05:54:34.996Z,0.60
2023-12-24T05:57:01.799Z,0.60
2023-12-24T05:59:29.148Z,0.60
2023-12-24T06:01:56.110Z,0.60
2023-12-24T06:04:22.870Z,0.60
2023-12-24T06:06:49.622Z,0.50
2023-12-24T06:09:16.634Z,0.60
2023-12-24T06:11:43.428Z,0.60
2023-12-24T06:14:10.287Z,0.60
2023-12-24T06:16:37.099Z,0.60
2023-12-24T06:19:03.956Z,0.60
2023-12-24T06:21:31.178Z,0.60
2023-12-24T06:23:58.080Z,0.70
2023-12-24T06:26:25.174Z,0.70
2023-12-24T06:28:52.214Z,0.70
2023-12-24T06:31:24.095Z,0.70
2023-12-24T06:33:51.215Z,0.80
2023-12-24T06:36:18.852Z,0.80
2023-12-24T06:38:46.472Z,0.90
2023-12-24T06:41:13.431Z,0.90
2023-12-24T06:43:40.601Z,0.90
2023-12-24T06:46:07.776Z,1.00
2023-12-24T06:48:34.921Z,1.00
2023-12-24T06:51:01.706Z,1.00
2023-12-24T06:53:28.629Z,1.00
2023-12-24T06:55:55.375Z,1.00
2023-12-24T06:58:22.554Z,1.10
2023-12-24T07:00:49.384Z,1.10
2023-12-24T07:03:16.448Z,1.10
2023-12-24T07:05:43.534Z,1.10
2023-12-24T07:08:10.963Z,1.20
2023-12-24T07:10:38.117Z,1.20
2023-12-24T07:13:05.183Z,1.20
2023-12-24T07:15:33.634Z,1.20
2023-12-24T07:18:00.885Z,1.30
2023-12-24T07:20:27.853Z,1.30
2023-12-24T07:22:54.813Z,1.30
2023-12-24T07:25:22.981Z,1.40
2023-12-24T07:27:49.776Z,1.40
2023-12-24T07:30:16.770Z,1.40
2023-12-24T07:32:45.134Z,1.50
2023-12-24T07:35:12.737Z,1.50
2023-12-24T07:37:42.283Z,1.50
2023-12-24T07:40:09.865Z,1.50
2023-12-24T07:42:38.145Z,1.60
2023-12-24T07:45:05.632Z,1.60
2023-12-24T07:47:32.951Z,1.60
2023-12-24T07:50:00.210Z,1.70
2023-12-24T07:52:27.348Z,1.70
2023-12-24T07:54:54.700Z,1.70
2023-12-24T07:57:21.430Z,1.80
2023-12-24T07:59:48.554Z,1.80
2023-12-24T08:02:15.389Z,1.80
2023-12-24T08:04:44.606Z,1.90
2023-12-24T08:07:11.650Z,1.90
2023-12-24T08:09:38.500Z,1.90
2023-12-24T08:12:05.767Z,2.00
2023-12-24T08:14:32.720Z,2.00
2023-12-24T08:16:59.868Z,2.10
2023-12-24T08:19:27.038Z,2.10
2023-12-24T08:21:53.879Z,2.10
2023-12-24T08:24:20.935Z,2.10
2023-12-24T08:26:47.848Z,2.20
2023-12-24T08:29:14.654Z,2.20
2023-12-24T08:31:42.060Z,2.20
2023-12-24T08:34:09.256Z,2.20
2023-12-24T08:36:36.251Z,2.30
2023-12-24T08:39:03.943Z,2.30
2023-12-24T08:41:31.066Z,2.40
2023-12-24T08:43:58.176Z,2.40
2023-12-24T08:46:25.012Z,2.40
2023-12-24T08:48:51.919Z,2.40
2023-12-24T08:51:18.772Z,2.40
2023-12-24T08:53:45.665Z,2.50
2023-12-24T08:56:12.558Z,2.50
2023-12-24T08:58:39.946Z,2.60
2023-12-24T09:01:06.834Z,2.50
2023-12-24T09:03:33.696Z,2.60
2023-12-24T09:06:01.184Z,2.60
2023-12-24T09:08:28.097Z,2.60
2023-12-24T09:10:55.069Z,2.60
2023-12-24T09:13:23.387Z,2.70
2023-12-24T09:15:50.184Z,2.70
2023-12-24T09:18:17.439Z,2.70
2023-12-24T09:20:44.473Z,2.70
2023-12-24T09:23:11.456Z,2.70
2023-12-24T09:25:38.340Z,2.80
2023-12-24T09:28:05.171Z,2.80
2023-12-24T09:30:32.010Z,2.80
2023-12-24T09:32:59.064Z,2.80
2023-12-24T09:35:26.345Z,2.80
2023-12-24T09:37:53.126Z,2.90
2023-12-24T09:40:19.895Z,2.90
2023-12-24T09:42:46.839Z,3.00
2023-12-24T09:45:13.704Z,3.00
2023-12-24T09:47:41.651Z,3.00
2023-12-24T09:50:09.299Z,3.10
2023-12-24T09:52:36.501Z,3.10
2023-12-24T09:55:04.984Z,3.10
2023-12-24T09:57:31.842Z,3.20
2023-12-24T09:59:58.791Z,3.10
2023-12-24T10:02:25.661Z,3.10
2023-12-24T10:04:53.445Z,3.10
2023-12-24T10:07:20.260Z,3.10
2023-12-24T10:09:50.965Z,3.10
2023-12-24T10:12:19.338Z,3.10
2023-12-24T10:15:06.457Z,3.20
2023-12-24T10:17:35.361Z,3.10
2023-12-24T10:20:07.540Z,3.20
2023-12-24T10:22:34.593Z,3.20
2023-12-24T10:25:03.679Z,3.20
2023-12-24T10:27:30.929Z,3.20
2023-12-24T10:30:14.054Z,3.20
2023-12-24T10:32:43.577Z,3.20
2023-12-24T10:35:11.144Z,3.20
2023-12-24T10:37:38.625Z,3.20
2023-12-24T10:40:10.871Z,3.30
2023-12-24T10:42:38.936Z,3.30
2023-12-24T10:45:06.937Z,3.30
2023-12-24T10:47:34.725Z,3.30
2023-12-24T10:50:02.087Z,3.30
2023-12-24T10:52:28.828Z,3.30
2023-12-24T10:54:57.026Z,3.30
2023-12-24T10:57:44.460Z,3.20
2023-12-24T11:00:14.419Z,3.20
2023-12-24T11:02:51.071Z,3.20
2023-12-24T11:05:43.723Z,3.20
2023-12-24T11:08:25.528Z,3.20
2023-12-24T11:11:05.225Z,3.20
2023-12-24T11:13:37.887Z,3.20
2023-12-24T11:16:11.944Z,3.30
2023-12-24T11:18:49.232Z,3.30
2023-12-24T11:21:18.057Z,3.30
2023-12-24T11:24:13.979Z,3.40
2023-12-24T11:26:53.855Z,3.40
2023-12-24T11:29:43.096Z,3.40
2023-12-24T11:32:25.360Z,3.40
2023-12-24T11:34:57.070Z,3.40
2023-12-24T11:37:37.520Z,3.50
2023-12-24T11:40:06.561Z,3.40
2023-12-24T11:42:49.712Z,3.40
2023-12-24T11:45:31.236Z,3.40
2023-12-24T11:47:58.793Z,3.40
2023-12-24T11:50:26.011Z,3.30
2023-12-24T11:52:53.926Z,3.20
2023-12-24T11:55:22.492Z,3.30
2023-12-24T11:57:51.017Z,3.30
2023-12-24T12:00:24.933Z,3.30
2023-12-24T12:03:01.513Z,3.20
2023-12-24T12:05:30.453Z,3.20
2023-12-24T12:07:57.943Z,3.20
2023-12-24T12:10:24.881Z,3.10
2023-12-24T12:12:52.273Z,3.10
2023-12-24T12:15:21.836Z,3.10
2023-12-24T12:17:51.456Z,3.10
2023-12-24T12:20:19.242Z,3.10
2023-12-24T12:22:46.222Z,3.10
2023-12-24T12:25:12.966Z,3.10
2023-12-24T12:27:40.073Z,3.10
2023-12-24T12:30:07.402Z,3.10
2023-12-24T12:32:34.631Z,3.10
2023-12-24T12:35:02.097Z,3.10
2023-12-24T12:37:29.561Z,3.10
2023-12-24T12:39:56.534Z,3.00
2023-12-24T12:42:32.044Z,3.00
2023-12-24T12:45:02.963Z,3.00
2023-12-24T12:47:29.986Z,3.00
2023-12-24T12:49:56.880Z,3.00
2023-12-24T12:52:24.009Z,2.90
2023-12-24T12:54:51.015Z,2.90
2023-12-24T12:57:35.041Z,2.80
2023-12-24T13:00:10.435Z,2.80
2023-12-24T13:02:38.672Z,2.80
2023-12-24T13:05:06.642Z,2.80
2023-12-24T13:07:34.343Z,2.70
2023-12-24T13:10:02.158Z,2.70
2023-12-24T13:12:30.112Z,2.70
2023-12-24T13:14:59.293Z,2.70
2023-12-24T13:17:26.733Z,2.70
2023-12-24T13:19:57.725Z,2.40
2023-12-24T13:22:26.009Z,2.70
2023-12-24T13:24:54.580Z,2.70
2023-12-24T13:27:21.638Z,2.60
2023-12-24T13:29:48.728Z,2.60
2023-12-24T13:32:15.772Z,2.60
2023-12-24T13:34:42.879Z,2.60
2023-12-24T13:37:09.859Z,2.60
2023-12-24T13:39:36.882Z,2.50
2023-12-24T13:42:04.973Z,2.50
2023-12-24T13:44:31.814Z,2.40
2023-12-24T13:47:00.189Z,2.40
2023-12-24T13:49:29.101Z,2.40
2023-12-24T13:51:56.862Z,2.40
2023-12-24T13:54:24.724Z,2.30
2023-12-24T13:56:52.460Z,2.30
2023-12-24T13:59:20.058Z,2.30
2023-12-24T14:01:47.132Z,2.30
2023-12-24T14:04:14.430Z,2.20
2023-12-24T14:06:41.336Z,2.20
2023-12-24T14:09:09.543Z,2.20
2023-12-24T14:11:37.501Z,2.20
2023-12-24T14:14:04.333Z,2.20
2023-12-24T14:16:33.256Z,2.20
2023-12-24T14:19:00.196Z,2.20
2023-12-24T14:21:26.992Z,2.20
2023-12-24T14:23:53.839Z,2.20
2023-12-24T14:26:21.013Z,2.20
2023-12-24T14:28:48.095Z,2.20
2023-12-24T14:31:16.283Z,2.20
2023-12-24T14:33:43.376Z,2.20
2023-12-24T14:36:10.383Z,2.30
2023-12-24T14:38:37.223Z,2.30
2023-12-24T14:41:04.155Z,2.30
2023-12-24T14:43:31.101Z,2.30
2023-12-24T14:45:59.480Z,2.30
2023-12-24T14:48:26.571Z,2.30
2023-12-24T14:50:53.604Z,2.30
2023-12-24T14:53:20.426Z,2.30
2023-12-24T14:55:47.621Z,2.30
2023-12-24T14:58:14.458Z,2.30
2023-12-24T15:00:42.643Z,2.30
2023-12-24T15:03:09.719Z,2.30
2023-12-24T15:05:36.566Z,2.30
2023-12-24T15:08:03.710Z,2.20
2023-12-24T15:10:30.742Z,2.30
2023-12-24T15:12:57.521Z,2.30
2023-12-24T15:15:24.379Z,2.20
2023-12-24T15:17:51.354Z,2.20
2023-12-24T15:20:19.099Z,2.20
2023-12-24T15:22:45.889Z,2.20
2023-12-24T15:25:12.757Z,2.20
2023-12-24T15:27:39.553Z,2.20
2023-12-24T15:30:07.651Z,2.10
2023-12-24T15:32:35.029Z,2.10
2023-12-24T15:35:02.975Z,2.10
2023-12-24T15:37:29.764Z,2.10
2023-12-24T15:39:56.670Z,2.10
2023-12-24T15:42:29.149Z,2.10
2023-12-24T15:44:55.955Z,2.10
2023-12-24T15:47:22.941Z,2.10
2023-12-24T15:49:52.879Z,2.10
2023-12-24T15:52:27.022Z,2.10
2023-12-24T15:54:54.371Z,2.10
2023-12-24T15:57:21.423Z,2.10
2023-12-24T15:59:48.357Z,2.10
2023-12-24T16:02:15.232Z,2.00
2023-12-24T16:04:45.417Z,2.00
2023-12-24T16:07:12.725Z,2.00
2023-12-24T16:09:40.708Z,1.90
2023-12-24T16:12:09.941Z,2.00
2023-12-24T16:14:37.302Z,2.00
2023-12-24T16:17:04.777Z,2.10
2023-12-24T16:19:31.667Z,2.10
2023-12-24T16:21:58.756Z,2.10
2023-12-24T16:24:26.070Z,2.10
2023-12-24T16:26:52.931Z,2.10
2023-12-24T16:29:19.998Z,2.10
2023-12-24T16:31:46.977Z,2.10
2023-12-24T16:34:14.632Z,2.10
2023-12-24T16:36:42.389Z,2.10
2023-12-24T16:39:09.334Z,2.10
2023-12-24T16:41:39.142Z,2.20
2023-12-24T16:44:07.178Z,2.20
2023-12-24T16:46:34.047Z,2.20
2023-12-24T16:49:01.201Z,2.20
2023-12-24T16:51:28.264Z,2.30
2023-12-24T16:53:55.122Z,2.30
2023-12-24T16:56:21.954Z,2.30
2023-12-24T16:58:48.999Z,2.30
2023-12-24T17:01:15.834Z,2.40
2023-12-24T17:03:42.892Z,2.40
2023-12-24T17:06:10.255Z,2.40
2023-12-24T17:08:40.101Z,2.50
2023-12-24T17:11:08.101Z,2.50
2023-12-24T17:13:35.136Z,2.60
2023-12-24T17:16:02.018Z,2.60
2023-12-24T17:18:32.264Z,3.20
2023-12-24T17:20:59.542Z,2.70
2023-12-24T17:23:26.681Z,2.70
2023-12-24T17:25:53.594Z,2.70
2023-12-24T17:28:20.471Z,2.80
2023-12-24T17:30:47.548Z,2.80
2023-12-24T17:33:14.842Z,2.80
2023-12-24T17:35:43.646Z,2.90
2023-12-24T17:38:10.789Z,2.90
2023-12-24T17:40:37.669Z,2.90
2023-12-24T17:43:04.547Z,3.00
2023-12-24T17:45:31.436Z,3.00
2023-12-24T17:48:06.070Z,3.00
2023-12-24T17:50:36.494Z,3.10
2023-12-24T17:53:03.761Z,3.10
2023-12-24T17:55:30.848Z,3.20
2023-12-24T17:57:58.350Z,3.30
2023-12-24T18:00:25.393Z,3.30
2023-12-24T18:02:52.458Z,3.40
2023-12-24T18:05:20.737Z,3.40
2023-12-24T18:07:47.762Z,3.90
2023-12-24T18:10:16.525Z,3.60
2023-12-24T18:12:43.333Z,3.70
2023-12-24T18:15:10.251Z,3.70
2023-12-24T18:17:37.297Z,3.80
2023-12-24T18:20:05.376Z,3.90
2023-12-24T18:22:32.258Z,3.90
2023-12-24T18:24:59.065Z,4.00
2023-12-24T18:27:25.929Z,4.10
2023-12-24T18:29:52.670Z,4.20
2023-12-24T18:32:19.598Z,4.20
2023-12-24T18:34:46.442Z,4.30
2023-12-24T18:37:13.277Z,4.40
2023-12-24T18:39:40.129Z,4.50
2023-12-24T18:42:07.128Z,4.60
2023-12-24T18:44:34.211Z,4.70
2023-12-24T18:47:01.096Z,4.70
2023-12-24T18:49:30.030Z,4.80
2023-12-24T18:51:58.051Z,4.90
2023-12-24T18:54:24.865Z,4.90
2023-12-24T18:56:51.745Z,5.00
2023-12-24T18:59:18.617Z,5.10
2023-12-24T19:01:50.702Z,5.20
2023-12-24T19:04:18.231Z,5.20
2023-12-24T19:06:45.299Z,5.30
2023-12-24T19:09:12.636Z,5.40
2023-12-24T19:11:39.615Z,5.40
2023-12-24T19:14:06.380Z,5.50
2023-12-24T19:16:33.330Z,5.60
2023-12-24T19:19:00.613Z,5.70
2023-12-24T19:21:27.603Z,5.70
2023-12-24T19:23:55.232Z,5.80
2023-12-24T19:26:22.499Z,5.80
2023-12-24T19:28:54.356Z,5.90
2023-12-24T19:31:24.692Z,5.90
2023-12-24T19:33:51.650Z,6.00
2023-12-24T19:36:18.731Z,6.00
2023-12-24T19:38:45.785Z,6.10
2023-12-24T19:41:18.222Z,6.10
2023-12-24T19:43:45.103Z,6.20
2023-12-24T19:46:11.845Z,6.30
2023-12-24T19:48:38.890Z,6.30
2023-12-24T19:51:09.082Z,6.40
2023-12-24T19:53:36.340Z,6.40
2023-12-24T19:56:03.565Z,6.50
2023-12-24T19:58:30.484Z,6.50
2023-12-24T20:00:57.522Z,6.50
2023-12-24T20:03:24.259Z,6.60
2023-12-24T20:05:51.413Z,6.60
2023-12-24T20:08:18.484Z,6.70
2023-12-24T20:10:46.537Z,6.70
2023-12-24T20:13:15.477Z,6.70
2023-12-24T20:15:42.263Z,6.80
2023-12-24T20:18:09.213Z,6.80
2023-12-24T20:20:36.125Z,6.90
2023-12-24T20:23:02.925Z,6.90
2023-12-24T20:25:29.757Z,6.90
2023-12-24T20:27:58.870Z,7.00
2023-12-24T20:30:25.745Z,7.00
2023-12-24T20:32:52.977Z,7.10
2023-12-24T20:35:20.161Z,7.10
2023-12-24T20:37:47.289Z,7.10
2023-12-24T20:40:14.260Z,7.20
2023-12-24T20:42:41.366Z,7.20
2023-12-24T20:45:08.427Z,7.30
2023-12-24T20:47:35.407Z,7.30
2023-12-24T20:50:02.849Z,7.30
2023-12-24T20:52:29.896Z,7.40
2023-12-24T20:54:56.683Z,7.40
2023-12-24T20:57:23.651Z,7.40
2023-12-24T20:59:53.313Z,7.40
2023-12-24T21:02:20.522Z,7.50
2023-12-24T21:04:47.536Z,7.50
2023-12-24T21:07:14.592Z,7.60
2023-12-24T21:09:43.408Z,7.60
2023-12-24T21:12:10.189Z,7.60
2023-12-24T21:14:36.983Z,7.60
2023-12-24T21:17:03.987Z,7.70
2023-12-24T21:19:31.043Z,7.70
2023-12-24T21:21:57.936Z,7.80
2023-12-24T21:24:25.109Z,7.70
2023-12-24T21:26:52.159Z,7.80
2023-12-24T21:29:19.025Z,7.80
2023-12-24T21:31:46.244Z,7.80
2023-12-24T21:34:14.540Z,7.90
2023-12-24T21:36:42.815Z,7.90
2023-12-24T21:39:09.840Z,8.00
2023-12-24T21:41:42.734Z,8.00
2023-12-24T21:44:09.745Z,8.00
2023-12-24T21:46:36.855Z,8.00
2023-12-24T21:49:03.866Z,7.70
2023-12-24T21:51:30.804Z,8.00
2023-12-24T21:53:58.046Z,8.10
2023-12-24T21:56:25.187Z,8.10
2023-12-24T21:58:52.263Z,8.20
2023-12-24T22:01:26.917Z,8.20
2023-12-24T22:03:59.588Z,8.20
2023-12-24T22:06:26.395Z,8.20
2023-12-24T22:08:53.469Z,8.30
2023-12-24T22:11:21.834Z,8.30
2023-12-24T22:13:49.511Z,8.30
2023-12-24T22:16:18.083Z,8.30
2023-12-24T22:18:45.888Z,8.40
2023-12-24T22:21:13.559Z,8.40
2023-12-24T22:23:40.452Z,8.40
2023-12-24T22:26:11.196Z,8.40
2023-12-24T22:28:38.189Z,8.40
2023-12-24T22:31:05.490Z,8.40
2023-12-24T22:33:33.049Z,8.40
2023-12-24T22:36:00.015Z,8.50
2023-12-24T22:38:26.828Z,8.50
2023-12-24T22:40:54.001Z,8.50
2023-12-24T22:43:20.787Z,8.40
2023-12-24T22:45:51.581Z,8.50
2023-12-24T22:48:19.796Z,8.50
2023-12-24T22:50:46.805Z,8.50
2023-12-24T22:53:15.017Z,8.40
2023-12-24T22:55:42.136Z,8.50
2023-12-24T22:58:10.225Z,8.50
2023-12-24T23:00:37.131Z,8.50
2023-12-24T23:03:04.483Z,8.50
2023-12-24T23:05:31.730Z,8.50
2023-12-24T23:07:58.823Z,8.50
2023-12-24T23:10:26.014Z,8.50
2023-12-24T23:12:52.874Z,8.50
2023-12-24T23:15:20.195Z,9.20
2023-12-24T23:17:47.118Z,8.50
2023-12-24T23:20:14.371Z,8.50
2023-12-24T23:22:41.423Z,8.50
2023-12-24T23:25:08.537Z,10.40
2023-12-24T23:27:35.396Z,8.60
2023-12-24T23:30:02.328Z,8.60
2023-12-24T23:32:29.471Z,8.50
2023-12-24T23:34:56.338Z,8.60
2023-12-24T23:37:23.170Z,7.80
2023-12-24T23:39:50.035Z,8.70
2023-12-24T23:42:16.824Z,8.70
2023-12-24T23:44:43.751Z,8.70
2023-12-24T23:47:10.519Z,8.70
2023-12-24T23:49:37.531Z,8.70
2023-12-24T23:52:05.005Z,8.80
2023-12-24T23:54:31.806Z,8.80
2023-12-24T23:56:58.898Z,8.90
2023-12-24T23:59:25.849Z,8.90
